sensor_id;sensor_type;location;lat;lon;timestamp;P1;durP1;ratioP1;P2;durP2;ratioP2
41466;SDS011;27205;53.690;19.948;2023-07-13T00:04:25;4.70;;;4.40;;
41466;SDS011;27205;53.690;19.948;2023-07-13T00:09:29;6.00;;;5.50;;
41466;SDS011;27205;53.690;19.948;2023-07-13T00:14:33;5.20;;;4.90;;
41466;SDS011;27205;53.690;19.948;2023-07-13T00:19:37;6.20;;;5.60;;
41466;SDS011;27205;53.690;19.948;2023-07-13T00:24:40;5.60;;;5.20;;
41466;SDS011;27205;53.690;19.948;2023-07-13T00:29:44;7.00;;;6.20;;
41466;SDS011;27205;53.690;19.948;2023-07-13T00:34:48;6.90;;;6.30;;
41466;SDS011;27205;53.690;19.948;2023-07-13T00:39:51;6.30;;;5.80;;
41466;SDS011;27205;53.690;19.948;2023-07-13T00:50:14;5.50;;;5.10;;
41466;SDS011;27205;53.690;19.948;2023-07-13T00:55:20;5.60;;;5.20;;
41466;SDS011;27205;53.690;19.948;2023-07-13T01:00:25;6.00;;;5.50;;
41466;SDS011;27205;53.690;19.948;2023-07-13T01:05:30;5.20;;;4.80;;
41466;SDS011;27205;53.690;19.948;2023-07-13T01:10:36;5.60;;;5.10;;
41466;SDS011;27205;53.690;19.948;2023-07-13T01:15:43;5.60;;;5.10;;
41466;SDS011;27205;53.690;19.948;2023-07-13T01:20:58;6.20;;;5.60;;
41466;SDS011;27205;53.690;19.948;2023-07-13T01:26:07;6.10;;;5.60;;
41466;SDS011;27205;53.690;19.948;2023-07-13T01:31:11;6.80;;;5.90;;
41466;SDS011;27205;53.690;19.948;2023-07-13T01:36:15;6.30;;;5.80;;
41466;SDS011;27205;53.690;19.948;2023-07-13T01:41:18;6.10;;;5.50;;
41466;SDS011;27205;53.690;19.948;2023-07-13T01:46:22;7.60;;;6.40;;
41466;SDS011;27205;53.690;19.948;2023-07-13T01:51:26;8.00;;;6.90;;
41466;SDS011;27205;53.690;19.948;2023-07-13T01:56:29;11.30;;;10.30;;
41466;SDS011;27205;53.690;19.948;2023-07-13T02:01:33;14.30;;;13.00;;
41466;SDS011;27205;53.690;19.948;2023-07-13T02:06:36;30.30;;;27.30;;
41466;SDS011;27205;53.690;19.948;2023-07-13T02:11:40;41.70;;;37.60;;
41466;SDS011;27205;53.690;19.948;2023-07-13T02:16:43;19.80;;;18.00;;
41466;SDS011;27205;53.690;19.948;2023-07-13T02:21:47;30.40;;;27.60;;
41466;SDS011;27205;53.690;19.948;2023-07-13T02:26:51;17.50;;;15.80;;
41466;SDS011;27205;53.690;19.948;2023-07-13T02:31:55;13.10;;;11.40;;
41466;SDS011;27205;53.690;19.948;2023-07-13T02:36:58;13.50;;;12.10;;
41466;SDS011;27205;53.690;19.948;2023-07-13T02:42:02;9.90;;;8.90;;
41466;SDS011;27205;53.690;19.948;2023-07-13T02:47:06;35.60;;;9.40;;
41466;SDS011;27205;53.690;19.948;2023-07-13T02:57:13;14.20;;;12.80;;
41466;SDS011;27205;53.690;19.948;2023-07-13T03:02:17;22.80;;;20.40;;
41466;SDS011;27205;53.690;19.948;2023-07-13T03:07:20;34.40;;;31.00;;
41466;SDS011;27205;53.690;19.948;2023-07-13T03:12:24;38.10;;;32.70;;
41466;SDS011;27205;53.690;19.948;2023-07-13T03:17:28;29.50;;;26.70;;
41466;SDS011;27205;53.690;19.948;2023-07-13T03:22:31;22.40;;;20.30;;
41466;SDS011;27205;53.690;19.948;2023-07-13T03:27:35;17.30;;;15.60;;
41466;SDS011;27205;53.690;19.948;2023-07-13T03:32:38;17.70;;;16.00;;
41466;SDS011;27205;53.690;19.948;2023-07-13T03:37:42;13.70;;;12.40;;
41466;SDS011;27205;53.690;19.948;2023-07-13T03:42:46;11.50;;;10.40;;
41466;SDS011;27205;53.690;19.948;2023-07-13T03:47:49;12.10;;;10.80;;
41466;SDS011;27205;53.690;19.948;2023-07-13T03:52:53;10.10;;;9.30;;
41466;SDS011;27205;53.690;19.948;2023-07-13T03:57:59;21.90;;;20.10;;
41466;SDS011;27205;53.690;19.948;2023-07-13T04:03:23;13.00;;;11.60;;
41466;SDS011;27205;53.690;19.948;2023-07-13T04:08:28;15.30;;;13.90;;
41466;SDS011;27205;53.690;19.948;2023-07-13T04:13:32;19.50;;;17.80;;
41466;SDS011;27205;53.690;19.948;2023-07-13T04:18:36;22.00;;;20.00;;
41466;SDS011;27205;53.690;19.948;2023-07-13T04:23:39;19.00;;;17.20;;
41466;SDS011;27205;53.690;19.948;2023-07-13T04:33:47;18.40;;;16.50;;
41466;SDS011;27205;53.690;19.948;2023-07-13T04:38:51;11.70;;;10.60;;
41466;SDS011;27205;53.690;19.948;2023-07-13T04:43:54;11.60;;;10.50;;
41466;SDS011;27205;53.690;19.948;2023-07-13T04:48:59;10.10;;;9.20;;
41466;SDS011;27205;53.690;19.948;2023-07-13T04:54:04;6.50;;;5.80;;
41466;SDS011;27205;53.690;19.948;2023-07-13T04:59:08;6.10;;;5.60;;
41466;SDS011;27205;53.690;19.948;2023-07-13T05:09:15;6.20;;;5.60;;
41466;SDS011;27205;53.690;19.948;2023-07-13T05:14:19;8.10;;;7.20;;
41466;SDS011;27205;53.690;19.948;2023-07-13T05:19:22;9.70;;;7.20;;
41466;SDS011;27205;53.690;19.948;2023-07-13T05:29:29;5.00;;;4.60;;
41466;SDS011;27205;53.690;19.948;2023-07-13T05:39:36;5.90;;;5.40;;
41466;SDS011;27205;53.690;19.948;2023-07-13T05:49:43;4.10;;;3.70;;
41466;SDS011;27205;53.690;19.948;2023-07-13T05:59:49;3.60;;;3.30;;
41466;SDS011;27205;53.690;19.948;2023-07-13T06:04:53;4.30;;;3.70;;
41466;SDS011;27205;53.690;19.948;2023-07-13T06:09:57;3.30;;;2.90;;
41466;SDS011;27205;53.690;19.948;2023-07-13T06:15:02;3.40;;;3.10;;
41466;SDS011;27205;53.690;19.948;2023-07-13T06:20:06;3.80;;;3.00;;
41466;SDS011;27205;53.690;19.948;2023-07-13T06:25:10;3.10;;;2.80;;
41466;SDS011;27205;53.690;19.948;2023-07-13T06:30:13;4.40;;;2.50;;
41466;SDS011;27205;53.690;19.948;2023-07-13T06:35:17;3.80;;;2.70;;
41466;SDS011;27205;53.690;19.948;2023-07-13T06:40:21;5.00;;;2.80;;
41466;SDS011;27205;53.690;19.948;2023-07-13T06:45:24;3.70;;;2.70;;
41466;SDS011;27205;53.690;19.948;2023-07-13T06:50:28;2.90;;;2.40;;
41466;SDS011;27205;53.690;19.948;2023-07-13T06:55:32;2.70;;;2.50;;
41466;SDS011;27205;53.690;19.948;2023-07-13T07:00:36;2.70;;;2.30;;
41466;SDS011;27205;53.690;19.948;2023-07-13T07:05:39;3.30;;;2.60;;
41466;SDS011;27205;53.690;19.948;2023-07-13T07:10:43;3.70;;;2.60;;
41466;SDS011;27205;53.690;19.948;2023-07-13T07:15:46;3.40;;;2.10;;
41466;SDS011;27205;53.690;19.948;2023-07-13T07:20:50;2.30;;;1.80;;
41466;SDS011;27205;53.690;19.948;2023-07-13T07:25:53;4.20;;;2.60;;
41466;SDS011;27205;53.690;19.948;2023-07-13T07:30:58;3.40;;;2.50;;
41466;SDS011;27205;53.690;19.948;2023-07-13T07:36:04;3.20;;;2.40;;
41466;SDS011;27205;53.690;19.948;2023-07-13T07:41:12;2.30;;;2.10;;
41466;SDS011;27205;53.690;19.948;2023-07-13T07:46:18;3.20;;;2.30;;
41466;SDS011;27205;53.690;19.948;2023-07-13T07:51:22;3.40;;;2.00;;
41466;SDS011;27205;53.690;19.948;2023-07-13T07:56:25;2.60;;;2.30;;
41466;SDS011;27205;53.690;19.948;2023-07-13T08:01:32;4.40;;;2.00;;
41466;SDS011;27205;53.690;19.948;2023-07-13T08:06:38;3.70;;;2.50;;
41466;SDS011;27205;53.690;19.948;2023-07-13T08:11:47;3.00;;;2.20;;
41466;SDS011;27205;53.690;19.948;2023-07-13T08:16:53;2.80;;;2.10;;
41466;SDS011;27205;53.690;19.948;2023-07-13T08:21:56;2.90;;;1.90;;
41466;SDS011;27205;53.690;19.948;2023-07-13T08:27:00;2.00;;;1.40;;
41466;SDS011;27205;53.690;19.948;2023-07-13T08:32:04;2.00;;;1.80;;
41466;SDS011;27205;53.690;19.948;2023-07-13T08:37:12;2.40;;;1.40;;
41466;SDS011;27205;53.690;19.948;2023-07-13T08:42:31;4.50;;;1.90;;
41466;SDS011;27205;53.690;19.948;2023-07-13T08:47:35;2.50;;;1.50;;
41466;SDS011;27205;53.690;19.948;2023-07-13T08:52:44;3.10;;;2.30;;
41466;SDS011;27205;53.690;19.948;2023-07-13T08:57:50;2.50;;;1.20;;
41466;SDS011;27205;53.690;19.948;2023-07-13T09:03:03;2.50;;;1.70;;
41466;SDS011;27205;53.690;19.948;2023-07-13T09:08:26;2.50;;;1.60;;
41466;SDS011;27205;53.690;19.948;2023-07-13T09:18:45;3.70;;;1.60;;
41466;SDS011;27205;53.690;19.948;2023-07-13T09:23:52;1.90;;;1.50;;
41466;SDS011;27205;53.690;19.948;2023-07-13T09:29:03;2.50;;;1.40;;
41466;SDS011;27205;53.690;19.948;2023-07-13T09:34:16;2.50;;;2.00;;
41466;SDS011;27205;53.690;19.948;2023-07-13T09:44:30;3.30;;;1.60;;
41466;SDS011;27205;53.690;19.948;2023-07-13T09:49:39;1.20;;;1.10;;
41466;SDS011;27205;53.690;19.948;2023-07-13T09:54:48;2.20;;;1.60;;
41466;SDS011;27205;53.690;19.948;2023-07-13T09:59:52;3.10;;;1.40;;
41466;SDS011;27205;53.690;19.948;2023-07-13T10:05:00;2.60;;;1.40;;
41466;SDS011;27205;53.690;19.948;2023-07-13T10:10:13;1.60;;;1.40;;
41466;SDS011;27205;53.690;19.948;2023-07-13T10:15:19;5.20;;;1.80;;
41466;SDS011;27205;53.690;19.948;2023-07-13T10:20:27;1.80;;;1.50;;
41466;SDS011;27205;53.690;19.948;2023-07-13T10:25:31;2.10;;;1.50;;
41466;SDS011;27205;53.690;19.948;2023-07-13T10:30:39;1.90;;;1.40;;
41466;SDS011;27205;53.690;19.948;2023-07-13T10:35:46;1.30;;;1.00;;
41466;SDS011;27205;53.690;19.948;2023-07-13T10:40:56;1.50;;;1.10;;
41466;SDS011;27205;53.690;19.948;2023-07-13T10:46:08;2.80;;;1.50;;
41466;SDS011;27205;53.690;19.948;2023-07-13T10:51:18;1.20;;;1.10;;
41466;SDS011;27205;53.690;19.948;2023-07-13T10:56:28;1.80;;;1.30;;
41466;SDS011;27205;53.690;19.948;2023-07-13T11:01:39;2.00;;;1.60;;
41466;SDS011;27205;53.690;19.948;2023-07-13T11:06:57;1.90;;;1.40;;
41466;SDS011;27205;53.690;19.948;2023-07-13T11:12:06;2.20;;;1.10;;
41466;SDS011;27205;53.690;19.948;2023-07-13T11:27:51;4.10;;;1.80;;
41466;SDS011;27205;53.690;19.948;2023-07-13T11:33:12;2.00;;;1.20;;
41466;SDS011;27205;53.690;19.948;2023-07-13T11:38:20;2.90;;;1.60;;
41466;SDS011;27205;53.690;19.948;2023-07-13T11:43:26;5.30;;;1.70;;
41466;SDS011;27205;53.690;19.948;2023-07-13T11:48:29;4.00;;;1.20;;
41466;SDS011;27205;53.690;19.948;2023-07-13T11:53:45;1.60;;;1.40;;
41466;SDS011;27205;53.690;19.948;2023-07-13T11:58:51;1.90;;;1.50;;
41466;SDS011;27205;53.690;19.948;2023-07-13T12:03:56;2.60;;;1.70;;
41466;SDS011;27205;53.690;19.948;2023-07-13T12:09:01;1.70;;;1.40;;
41466;SDS011;27205;53.690;19.948;2023-07-13T12:14:10;2.60;;;1.50;;
41466;SDS011;27205;53.690;19.948;2023-07-13T12:24:24;2.10;;;1.50;;
41466;SDS011;27205;53.690;19.948;2023-07-13T12:29:30;2.30;;;1.40;;
41466;SDS011;27205;53.690;19.948;2023-07-13T12:34:49;1.80;;;1.20;;
41466;SDS011;27205;53.690;19.948;2023-07-13T12:39:56;1.60;;;1.50;;
41466;SDS011;27205;53.690;19.948;2023-07-13T12:45:05;1.20;;;1.00;;
41466;SDS011;27205;53.690;19.948;2023-07-13T12:50:17;2.80;;;1.50;;
41466;SDS011;27205;53.690;19.948;2023-07-13T12:55:23;3.00;;;1.20;;
41466;SDS011;27205;53.690;19.948;2023-07-13T13:00:35;2.50;;;1.40;;
41466;SDS011;27205;53.690;19.948;2023-07-13T13:05:41;1.50;;;1.40;;
41466;SDS011;27205;53.690;19.948;2023-07-13T13:10:45;3.10;;;1.40;;
41466;SDS011;27205;53.690;19.948;2023-07-13T13:15:49;3.50;;;1.80;;
41466;SDS011;27205;53.690;19.948;2023-07-13T13:20:53;1.60;;;1.40;;
41466;SDS011;27205;53.690;19.948;2023-07-13T13:25:57;26.60;;;24.10;;
41466;SDS011;27205;53.690;19.948;2023-07-13T13:31:01;4.40;;;4.00;;
41466;SDS011;27205;53.690;19.948;2023-07-13T13:36:04;25.10;;;21.90;;
41466;SDS011;27205;53.690;19.948;2023-07-13T13:41:12;19.10;;;16.20;;
41466;SDS011;27205;53.690;19.948;2023-07-13T13:46:24;19.70;;;17.90;;
41466;SDS011;27205;53.690;19.948;2023-07-13T13:51:28;10.60;;;9.50;;
41466;SDS011;27205;53.690;19.948;2023-07-13T13:56:32;4.30;;;3.80;;
41466;SDS011;27205;53.690;19.948;2023-07-13T14:01:36;1.80;;;1.60;;
41466;SDS011;27205;53.690;19.948;2023-07-13T14:06:40;1.90;;;1.80;;
41466;SDS011;27205;53.690;19.948;2023-07-13T14:11:45;4.50;;;3.30;;
41466;SDS011;27205;53.690;19.948;2023-07-13T14:16:52;10.10;;;8.20;;
41466;SDS011;27205;53.690;19.948;2023-07-13T14:21:59;19.20;;;17.40;;
41466;SDS011;27205;53.690;19.948;2023-07-13T14:27:03;8.00;;;6.10;;
41466;SDS011;27205;53.690;19.948;2023-07-13T14:32:10;4.30;;;3.20;;
41466;SDS011;27205;53.690;19.948;2023-07-13T14:37:14;3.90;;;2.90;;
41466;SDS011;27205;53.690;19.948;2023-07-13T14:42:19;3.10;;;2.30;;
41466;SDS011;27205;53.690;19.948;2023-07-13T14:47:22;6.30;;;5.80;;
41466;SDS011;27205;53.690;19.948;2023-07-13T14:52:26;7.10;;;6.50;;
41466;SDS011;27205;53.690;19.948;2023-07-13T14:57:30;6.20;;;5.50;;
41466;SDS011;27205;53.690;19.948;2023-07-13T15:02:34;10.50;;;9.20;;
41466;SDS011;27205;53.690;19.948;2023-07-13T15:07:41;4.90;;;4.50;;
41466;SDS011;27205;53.690;19.948;2023-07-13T15:12:45;2.00;;;1.70;;
41466;SDS011;27205;53.690;19.948;2023-07-13T15:17:49;2.50;;;1.80;;
41466;SDS011;27205;53.690;19.948;2023-07-13T15:22:53;2.70;;;2.00;;
41466;SDS011;27205;53.690;19.948;2023-07-13T15:27:57;3.70;;;2.50;;
41466;SDS011;27205;53.690;19.948;2023-07-13T15:33:05;1.70;;;1.60;;
41466;SDS011;27205;53.690;19.948;2023-07-13T15:38:18;2.00;;;1.60;;
41466;SDS011;27205;53.690;19.948;2023-07-13T15:43:32;3.00;;;2.00;;
41466;SDS011;27205;53.690;19.948;2023-07-13T15:48:36;1.70;;;1.40;;
41466;SDS011;27205;53.690;19.948;2023-07-13T15:53:40;4.00;;;3.60;;
41466;SDS011;27205;53.690;19.948;2023-07-13T15:58:44;2.00;;;1.80;;
41466;SDS011;27205;53.690;19.948;2023-07-13T16:03:47;1.60;;;1.50;;
41466;SDS011;27205;53.690;19.948;2023-07-13T16:08:52;2.40;;;1.60;;
41466;SDS011;27205;53.690;19.948;2023-07-13T16:13:56;2.10;;;1.80;;
41466;SDS011;27205;53.690;19.948;2023-07-13T16:19:04;2.60;;;1.60;;
41466;SDS011;27205;53.690;19.948;2023-07-13T16:24:11;2.70;;;1.70;;
41466;SDS011;27205;53.690;19.948;2023-07-13T16:29:25;2.20;;;1.70;;
41466;SDS011;27205;53.690;19.948;2023-07-13T16:34:31;1.50;;;1.40;;
41466;SDS011;27205;53.690;19.948;2023-07-13T16:39:45;3.90;;;1.70;;
41466;SDS011;27205;53.690;19.948;2023-07-13T16:44:51;2.90;;;2.00;;
41466;SDS011;27205;53.690;19.948;2023-07-13T16:49:56;2.60;;;1.90;;
41466;SDS011;27205;53.690;19.948;2023-07-13T16:55:01;2.10;;;1.90;;
41466;SDS011;27205;53.690;19.948;2023-07-13T17:00:23;3.10;;;2.20;;
41466;SDS011;27205;53.690;19.948;2023-07-13T17:05:40;3.50;;;2.10;;
41466;SDS011;27205;53.690;19.948;2023-07-13T17:10:48;2.00;;;1.70;;
41466;SDS011;27205;53.690;19.948;2023-07-13T17:15:54;4.20;;;2.70;;
41466;SDS011;27205;53.690;19.948;2023-07-13T17:21:02;4.40;;;2.60;;
41466;SDS011;27205;53.690;19.948;2023-07-13T17:26:12;3.20;;;2.90;;
41466;SDS011;27205;53.690;19.948;2023-07-13T17:31:17;5.30;;;3.30;;
41466;SDS011;27205;53.690;19.948;2023-07-13T17:36:24;2.70;;;2.30;;
41466;SDS011;27205;53.690;19.948;2023-07-13T17:41:28;4.00;;;2.60;;
41466;SDS011;27205;53.690;19.948;2023-07-13T17:46:32;2.90;;;2.70;;
41466;SDS011;27205;53.690;19.948;2023-07-13T17:51:38;2.70;;;2.40;;
41466;SDS011;27205;53.690;19.948;2023-07-13T17:56:42;2.70;;;2.00;;
41466;SDS011;27205;53.690;19.948;2023-07-13T18:01:46;4.00;;;2.10;;
41466;SDS011;27205;53.690;19.948;2023-07-13T18:06:50;2.40;;;2.20;;
41466;SDS011;27205;53.690;19.948;2023-07-13T18:12:00;2.90;;;2.60;;
41466;SDS011;27205;53.690;19.948;2023-07-13T18:17:04;3.40;;;2.70;;
41466;SDS011;27205;53.690;19.948;2023-07-13T18:22:12;3.70;;;2.40;;
41466;SDS011;27205;53.690;19.948;2023-07-13T18:27:18;2.40;;;2.20;;
41466;SDS011;27205;53.690;19.948;2023-07-13T18:32:21;2.70;;;2.00;;
41466;SDS011;27205;53.690;19.948;2023-07-13T18:37:25;4.60;;;2.50;;
41466;SDS011;27205;53.690;19.948;2023-07-13T18:42:29;3.30;;;2.50;;
41466;SDS011;27205;53.690;19.948;2023-07-13T18:47:32;3.60;;;2.70;;
41466;SDS011;27205;53.690;19.948;2023-07-13T18:52:37;3.60;;;2.50;;
41466;SDS011;27205;53.690;19.948;2023-07-13T18:57:41;3.50;;;2.40;;
41466;SDS011;27205;53.690;19.948;2023-07-13T19:02:44;3.30;;;2.40;;
41466;SDS011;27205;53.690;19.948;2023-07-13T19:07:48;2.50;;;2.30;;
41466;SDS011;27205;53.690;19.948;2023-07-13T19:12:56;4.50;;;3.30;;
41466;SDS011;27205;53.690;19.948;2023-07-13T19:18:05;3.90;;;3.40;;
41466;SDS011;27205;53.690;19.948;2023-07-13T19:23:18;4.30;;;3.60;;
41466;SDS011;27205;53.690;19.948;2023-07-13T19:33:39;3.80;;;3.20;;
41466;SDS011;27205;53.690;19.948;2023-07-13T19:38:43;3.60;;;3.30;;
41466;SDS011;27205;53.690;19.948;2023-07-13T19:43:47;4.30;;;3.20;;
41466;SDS011;27205;53.690;19.948;2023-07-13T19:48:52;3.30;;;3.00;;
41466;SDS011;27205;53.690;19.948;2023-07-13T19:54:02;3.10;;;2.80;;
41466;SDS011;27205;53.690;19.948;2023-07-13T19:59:24;3.80;;;3.10;;
41466;SDS011;27205;53.690;19.948;2023-07-13T20:04:34;4.30;;;3.10;;
41466;SDS011;27205;53.690;19.948;2023-07-13T20:09:38;4.50;;;3.70;;
41466;SDS011;27205;53.690;19.948;2023-07-13T20:14:45;3.80;;;3.30;;
41466;SDS011;27205;53.690;19.948;2023-07-13T20:19:49;3.90;;;3.50;;
41466;SDS011;27205;53.690;19.948;2023-07-13T20:24:53;6.50;;;5.90;;
41466;SDS011;27205;53.690;19.948;2023-07-13T20:29:57;6.50;;;5.90;;
41466;SDS011;27205;53.690;19.948;2023-07-13T20:35:02;4.20;;;3.80;;
41466;SDS011;27205;53.690;19.948;2023-07-13T20:40:13;5.20;;;4.00;;
41466;SDS011;27205;53.690;19.948;2023-07-13T20:45:19;5.00;;;4.20;;
41466;SDS011;27205;53.690;19.948;2023-07-13T20:50:25;6.40;;;4.70;;
41466;SDS011;27205;53.690;19.948;2023-07-13T20:55:35;5.20;;;4.80;;
41466;SDS011;27205;53.690;19.948;2023-07-13T21:00:39;6.00;;;4.60;;
41466;SDS011;27205;53.690;19.948;2023-07-13T21:05:44;5.00;;;4.60;;
41466;SDS011;27205;53.690;19.948;2023-07-13T21:10:48;6.10;;;5.50;;
41466;SDS011;27205;53.690;19.948;2023-07-13T21:15:52;5.80;;;5.20;;
41466;SDS011;27205;53.690;19.948;2023-07-13T21:20:56;6.00;;;5.20;;
41466;SDS011;27205;53.690;19.948;2023-07-13T21:31:05;7.00;;;6.30;;
41466;SDS011;27205;53.690;19.948;2023-07-13T21:36:12;7.90;;;6.20;;
41466;SDS011;27205;53.690;19.948;2023-07-13T21:41:20;5.70;;;5.20;;
41466;SDS011;27205;53.690;19.948;2023-07-13T21:46:27;5.40;;;5.00;;
41466;SDS011;27205;53.690;19.948;2023-07-13T21:51:32;5.20;;;4.70;;
41466;SDS011;27205;53.690;19.948;2023-07-13T21:56:37;4.80;;;4.40;;
41466;SDS011;27205;53.690;19.948;2023-07-13T22:06:44;5.60;;;5.10;;
41466;SDS011;27205;53.690;19.948;2023-07-13T22:11:47;4.40;;;3.60;;
41466;SDS011;27205;53.690;19.948;2023-07-13T22:16:51;5.70;;;4.50;;
41466;SDS011;27205;53.690;19.948;2023-07-13T22:26:59;7.60;;;6.10;;
41466;SDS011;27205;53.690;19.948;2023-07-13T22:32:02;7.30;;;5.90;;
41466;SDS011;27205;53.690;19.948;2023-07-13T22:37:07;7.20;;;6.50;;
41466;SDS011;27205;53.690;19.948;2023-07-13T22:42:11;5.60;;;5.10;;
41466;SDS011;27205;53.690;19.948;2023-07-13T22:47:15;7.70;;;5.50;;
41466;SDS011;27205;53.690;19.948;2023-07-13T22:52:22;4.70;;;4.30;;
41466;SDS011;27205;53.690;19.948;2023-07-13T22:57:25;7.10;;;5.20;;
41466;SDS011;27205;53.690;19.948;2023-07-13T23:02:29;6.20;;;4.90;;
41466;SDS011;27205;53.690;19.948;2023-07-13T23:07:32;9.10;;;5.50;;
41466;SDS011;27205;53.690;19.948;2023-07-13T23:12:37;5.20;;;4.80;;
41466;SDS011;27205;53.690;19.948;2023-07-13T23:17:40;5.80;;;4.60;;
41466;SDS011;27205;53.690;19.948;2023-07-13T23:22:44;5.50;;;4.10;;
41466;SDS011;27205;53.690;19.948;2023-07-13T23:27:49;5.70;;;4.90;;
41466;SDS011;27205;53.690;19.948;2023-07-13T23:32:56;4.60;;;3.40;;
41466;SDS011;27205;53.690;19.948;2023-07-13T23:38:04;4.30;;;3.90;;
41466;SDS011;27205;53.690;19.948;2023-07-13T23:43:07;2.40;;;2.10;;
41466;SDS011;27205;53.690;19.948;2023-07-13T23:48:11;3.40;;;2.70;;
41466;SDS011;27205;53.690;19.948;2023-07-13T23:53:15;3.10;;;2.50;;
41466;SDS011;27205;53.690;19.948;2023-07-13T23:58:19;3.60;;;2.80;;
